Time;durP1;ratioP1;P1;durP2;ratioP2;P2;SDS_P1;SDS_P2;PMS_P1;PMS_P2;Temp;Humidity;BMP_temperature;BMP_pressure;BME280_temperature;BME280_humidity;BME280_pressure;Samples;Min_cycle;Max_cycle;Signal;HPM_P1;HPM_P2
2021/12/22 00:01:53;;;;;;;279.20;167.60;;;;;;;-4.02;76.01;98740.40;106231;1324;22410;-61
2021/12/22 00:04:24;;;;;;;281.70;176.40;;;;;;;-3.97;76.22;98742.04;106225;1324;22416;-60
2021/12/22 00:06:53;;;;;;;299.40;188.30;;;;;;;-3.92;76.41;98741.09;106231;1324;22406;-60
2021/12/22 00:09:22;;;;;;;290.90;183.20;;;;;;;-3.90;76.27;98743.09;106251;1323;22696;-60
2021/12/22 00:11:50;;;;;;;283.90;181.50;;;;;;;-3.91;76.29;98742.55;106239;1322;22568;-61
2021/12/22 00:14:18;;;;;;;300.00;190.30;;;;;;;-3.96;76.35;98745.95;106227;1325;22310;-61
2021/12/22 00:16:46;;;;;;;273.40;173.40;;;;;;;-4.01;76.49;98750.89;106266;1324;22414;-60
2021/12/22 00:19:14;;;;;;;271.10;167.90;;;;;;;-4.05;76.51;98747.16;106255;1324;23237;-61
2021/12/22 00:21:42;;;;;;;264.80;166.30;;;;;;;-4.10;76.73;98744.59;106115;1324;139997;-61
2021/12/22 00:24:10;;;;;;;272.50;174.80;;;;;;;-4.13;76.58;98743.86;106275;1323;22472;-62
2021/12/22 00:26:39;;;;;;;284.70;184.40;;;;;;;-4.15;76.83;98749.16;106264;1322;22282;-61
2021/12/22 00:29:08;;;;;;;287.50;190.60;;;;;;;-4.17;76.88;98751.02;106291;1323;22320;-61
2021/12/22 00:31:55;;;;;;;297.50;199.90;;;;;;;-4.21;76.90;98757.98;106263;1316;23249;-61
2021/12/22 00:34:49;;;;;;;300.50;204.00;;;;;;;-4.24;76.93;98758.75;106226;1321;22232;-60
2021/12/22 00:37:21;;;;;;;294.90;186.40;;;;;;;-4.28;77.30;98765.33;106288;1316;22419;-61
2021/12/22 00:39:53;;;;;;;272.30;171.50;;;;;;;-4.30;77.17;98764.00;106271;1316;23236;-61
2021/12/22 00:42:24;;;;;;;284.20;181.80;;;;;;;-4.25;77.00;98764.08;106291;1315;22608;-61
2021/12/22 00:44:56;;;;;;;296.30;191.70;;;;;;;-4.19;77.08;98767.80;106294;1321;22736;-61
2021/12/22 00:47:27;;;;;;;300.50;194.20;;;;;;;-4.17;77.07;98766.09;106282;1317;22543;-62
2021/12/22 00:50:00;;;;;;;306.80;202.40;;;;;;;-4.19;77.18;98768.81;106304;1321;22494;-61
2021/12/22 00:52:28;;;;;;;307.60;203.90;;;;;;;-4.23;77.21;98769.69;106226;1315;138318;-61
2021/12/22 00:54:56;;;;;;;322.00;218.80;;;;;;;-4.25;77.22;98772.41;106314;1318;22493;-61
2021/12/22 00:57:27;;;;;;;303.10;193.40;;;;;;;-4.29;77.44;98779.82;106266;1317;22480;-61
2021/12/22 00:59:55;;;;;;;282.80;182.60;;;;;;;-4.30;77.47;98773.84;106301;1321;22570;-60
2021/12/22 01:02:24;;;;;;;293.60;186.70;;;;;;;-4.28;77.37;98769.61;106260;1321;22615;-61
2021/12/22 01:04:53;;;;;;;305.00;194.40;;;;;;;-4.24;77.21;98772.63;106323;1323;22460;-61
2021/12/22 01:07:22;;;;;;;302.00;194.20;;;;;;;-4.23;77.42;98773.10;106299;1323;23199;-61
2021/12/22 01:09:59;;;;;;;299.20;195.50;;;;;;;-4.24;77.42;98777.33;106305;1316;23268;-66
2021/12/22 01:12:27;;;;;;;314.20;212.20;;;;;;;-4.26;77.51;98777.17;106266;1317;22400;-65
2021/12/22 01:14:55;;;;;;;324.70;211.30;;;;;;;-4.28;77.58;98776.38;106314;1323;23632;-64
2021/12/22 01:17:23;;;;;;;295.70;182.80;;;;;;;-4.32;77.47;98779.16;106324;1323;22404;-61
2021/12/22 01:20:04;;;;;;;289.00;176.50;;;;;;;-4.36;77.37;98780.61;106276;1323;22511;-61
2021/12/22 01:25:12;;;;;;;296.20;186.20;;;;;;;-4.30;77.55;98786.15;106200;1323;138598;-60
2021/12/22 01:27:42;;;;;;;295.80;188.90;;;;;;;-4.29;77.67;98788.34;106215;1323;22352;-60
2021/12/22 01:30:14;;;;;;;306.80;194.40;;;;;;;-4.35;77.77;98788.77;106286;1323;23223;-61
2021/12/22 01:32:43;;;;;;;321.40;204.20;;;;;;;-4.40;77.87;98793.75;106291;1323;22590;-60
2021/12/22 01:35:15;;;;;;;318.30;206.40;;;;;;;-4.45;77.79;98795.22;106288;1323;22483;-59
2021/12/22 01:37:43;;;;;;;310.00;193.50;;;;;;;-4.50;78.09;98800.36;106265;1323;22222;-60
2021/12/22 01:40:13;;;;;;;305.10;181.50;;;;;;;-4.52;78.16;98799.64;106297;1323;22299;-61
2021/12/22 01:42:42;;;;;;;292.10;184.80;;;;;;;-4.50;78.08;98800.30;106296;1323;22613;-60
2021/12/22 01:45:29;;;;;;;295.60;191.20;;;;;;;-4.48;78.26;98796.50;106254;1323;23063;-60
2021/12/22 01:50:49;;;;;;;306.60;201.80;;;;;;;-4.42;78.35;98795.36;106027;1323;375861;-61
2021/12/22 01:53:20;;;;;;;307.60;206.90;;;;;;;-4.40;78.35;98793.65;106289;1323;22376;-60
2021/12/22 01:56:04;;;;;;;280.80;180.00;;;;;;;-4.39;78.61;98795.55;106278;1323;22575;-61
2021/12/22 01:58:36;;;;;;;271.40;175.10;;;;;;;-4.35;78.38;98798.27;106311;1323;22460;-61
2021/12/22 02:01:05;;;;;;;290.30;181.80;;;;;;;-4.30;78.19;98796.67;106297;1323;22288;-60
2021/12/22 02:03:33;;;;;;;282.80;184.60;;;;;;;-4.27;78.29;98792.25;106283;1323;22481;-60
2021/12/22 02:06:04;;;;;;;305.40;197.30;;;;;;;-4.25;78.28;98787.64;106258;1323;22485;-61
2021/12/22 02:08:33;;;;;;;278.00;177.50;;;;;;;-4.25;78.53;98787.93;106312;1323;23063;-60
2021/12/22 02:11:02;;;;;;;284.90;187.90;;;;;;;-4.31;78.40;98786.55;106280;1323;22510;-60
2021/12/22 02:13:36;;;;;;;269.20;168.40;;;;;;;-4.31;78.50;98783.75;106290;1323;23234;-59
2021/12/22 02:16:08;;;;;;;253.80;154.20;;;;;;;-4.29;78.46;98781.63;106343;1323;22509;-59
2021/12/22 02:18:40;;;;;;;256.10;153.80;;;;;;;-4.25;78.31;98783.14;106305;1323;23365;-59
2021/12/22 02:21:08;;;;;;;260.50;166.00;;;;;;;-4.22;78.40;98785.98;106308;1323;23256;-60
2021/12/22 02:23:37;;;;;;;249.40;163.50;;;;;;;-4.22;78.38;98783.39;106307;1323;22443;-60
2021/12/22 02:26:13;;;;;;;265.90;180.60;;;;;;;-4.20;78.46;98779.85;106315;1323;22562;-60
2021/12/22 02:28:45;;;;;;;273.40;182.50;;;;;;;-4.21;78.38;98779.23;106294;1323;22446;-60
2021/12/22 02:31:18;;;;;;;268.50;177.90;;;;;;;-4.24;78.40;98781.51;106266;1322;22583;-60
2021/12/22 02:33:49;;;;;;;241.50;153.20;;;;;;;-4.25;78.58;98780.31;106304;1323;22498;-60
2021/12/22 02:38:55;;;;;;;226.90;134.30;;;;;;;-4.24;78.71;98784.46;106320;1323;23178;-58
2021/12/22 02:41:27;;;;;;;220.10;137.40;;;;;;;-4.23;79.30;98783.02;106315;1323;22486;-60
2021/12/22 02:43:57;;;;;;;225.90;140.50;;;;;;;-4.24;79.10;98785.99;106285;1323;22468;-61
2021/12/22 02:46:32;;;;;;;238.10;150.50;;;;;;;-4.26;78.95;98783.94;106310;1323;22410;-61
2021/12/22 02:49:01;;;;;;;;;;;;;;;-4.27;79.05;98785.03;106310;1323;23196;-60
2021/12/22 02:51:30;;;;;;;237.40;150.30;;;;;;;-4.29;79.13;98781.67;106326;1323;22435;-61
2021/12/22 02:54:22;;;;;;;242.60;147.80;;;;;;;-4.32;79.15;98782.65;106284;1323;22469;-61
2021/12/22 02:56:55;;;;;;;222.40;139.60;;;;;;;-4.28;79.08;98785.50;106290;1323;22452;-60
2021/12/22 03:02:19;;;;;;;234.80;144.90;;;;;;;-4.16;78.96;98779.30;106095;1323;22781;-61
2021/12/22 03:04:55;;;;;;;233.10;145.20;;;;;;;-4.09;79.14;98778.91;106284;1323;22230;-61
2021/12/22 03:07:27;;;;;;;240.80;152.40;;;;;;;-4.06;79.02;98782.61;106303;1323;22495;-61
2021/12/22 03:10:04;;;;;;;243.20;152.30;;;;;;;-4.07;79.02;98785.48;106300;1323;22588;-61
2021/12/22 03:12:35;;;;;;;249.10;152.60;;;;;;;-4.09;79.13;98786.63;106314;1323;23227;-61
2021/12/22 03:15:08;;;;;;;244.70;146.00;;;;;;;-4.14;79.12;98785.57;106319;1323;22555;-60
2021/12/22 03:17:40;;;;;;;236.00;136.60;;;;;;;-4.16;79.08;98791.11;106282;1323;22474;-59
2021/12/22 03:20:11;;;;;;;230.10;142.70;;;;;;;-4.17;79.12;98789.05;106296;1323;22498;-61
2021/12/22 03:22:41;;;;;;;252.20;146.90;;;;;;;-4.14;79.07;98789.33;106327;1323;23348;-60
2021/12/22 03:25:15;;;;;;;249.70;152.20;;;;;;;-4.12;79.28;98785.84;106193;1323;138510;-61
2021/12/22 03:27:45;;;;;;;254.00;155.70;;;;;;;-4.11;79.40;98781.20;106328;1323;22489;-61
2021/12/22 03:30:15;;;;;;;264.20;168.40;;;;;;;-4.09;79.35;98779.95;106286;1322;23693;-60
2021/12/22 03:32:43;;;;;;;260.30;161.60;;;;;;;-4.08;79.48;98780.34;106299;1323;23227;-60
2021/12/22 03:35:17;;;;;;;244.80;148.80;;;;;;;-4.08;79.42;98780.54;106303;1323;22615;-60
2021/12/22 03:37:49;;;;;;;223.40;133.70;;;;;;;-4.08;79.31;98783.56;106289;1323;22508;-60
2021/12/22 03:40:22;;;;;;;232.10;137.10;;;;;;;-4.09;79.26;98788.73;106304;1323;22443;-61
2021/12/22 03:42:50;;;;;;;232.40;139.60;;;;;;;-4.10;79.35;98789.34;106303;1323;23123;-58
2021/12/22 03:45:19;;;;;;;242.00;144.70;;;;;;;-4.14;79.28;98790.11;106308;1323;22462;-61
2021/12/22 03:47:47;;;;;;;241.10;149.20;;;;;;;-4.18;79.46;98786.76;106335;1323;22490;-61
2021/12/22 03:50:17;;;;;;;258.50;154.30;;;;;;;-4.23;79.47;98787.87;106278;1319;23640;-59
2021/12/22 03:52:47;;;;;;;250.80;156.70;;;;;;;-4.25;79.59;98785.13;106286;1323;23091;-60
2021/12/22 03:55:15;;;;;;;234.10;139.10;;;;;;;-4.28;79.56;98785.86;106245;1323;22388;-60
2021/12/22 03:57:44;;;;;;;235.10;136.50;;;;;;;-4.29;79.44;98788.27;106315;1323;22983;-60
2021/12/22 04:00:13;;;;;;;217.30;133.10;;;;;;;-4.27;79.49;98788.09;106307;1323;22564;-60
2021/12/22 04:02:42;;;;;;;222.30;132.30;;;;;;;-4.26;79.58;98789.13;106310;1323;23202;-60
2021/12/22 04:05:11;;;;;;;236.60;140.00;;;;;;;-4.26;79.61;98789.57;106291;1323;22272;-60
2021/12/22 04:07:39;;;;;;;233.40;139.00;;;;;;;-4.29;79.63;98789.16;106323;1323;23119;-60
2021/12/22 04:10:20;;;;;;;227.80;139.90;;;;;;;-4.31;79.70;98788.56;106292;1323;23029;-61
2021/12/22 04:12:54;;;;;;;243.70;145.10;;;;;;;-4.38;79.88;98787.14;106324;1323;23094;-61
2021/12/22 04:15:25;;;;;;;230.20;133.00;;;;;;;-4.41;79.89;98783.20;106302;1323;23027;-61
2021/12/22 04:17:53;;;;;;;217.60;124.90;;;;;;;-4.40;79.87;98786.91;106282;1323;22417;-60
2021/12/22 04:20:22;;;;;;;211.40;121.60;;;;;;;-4.36;79.77;98788.22;106255;1323;23158;-61
2021/12/22 04:22:52;;;;;;;229.10;136.50;;;;;;;-4.29;79.84;98792.18;106302;1323;22750;-60
2021/12/22 04:25:21;;;;;;;217.30;130.40;;;;;;;-4.23;79.92;98793.01;106319;1323;22279;-60
2021/12/22 04:27:52;;;;;;;221.40;132.70;;;;;;;-4.21;79.89;98798.41;106308;1323;22472;-60
2021/12/22 04:30:22;;;;;;;210.80;128.50;;;;;;;-4.23;80.01;98799.98;106291;1323;22554;-60
2021/12/22 04:32:51;;;;;;;221.20;122.40;;;;;;;-4.29;80.26;98802.36;106325;1323;22388;-60
2021/12/22 04:35:19;;;;;;;205.20;122.80;;;;;;;-4.33;80.17;98800.55;106327;1323;23033;-60
2021/12/22 04:37:47;;;;;;;209.30;124.50;;;;;;;-4.31;80.07;98800.60;106303;1323;22366;-59
2021/12/22 04:40:15;;;;;;;213.20;127.70;;;;;;;-4.25;80.03;98803.55;106300;1323;22999;-60
2021/12/22 04:42:44;;;;;;;207.60;126.50;;;;;;;-4.19;80.24;98807.43;106290;1323;22487;-61
2021/12/22 04:45:14;;;;;;;225.60;130.20;;;;;;;-4.20;80.34;98813.38;106277;1322;22513;-60
2021/12/22 04:47:43;;;;;;;228.20;133.50;;;;;;;-4.23;80.46;98815.84;106327;1319;23218;-60
2021/12/22 04:50:15;;;;;;;237.40;139.30;;;;;;;-4.24;80.55;98814.50;106232;1323;22498;-59
2021/12/22 04:53:08;;;;;;;205.70;122.70;;;;;;;-4.22;80.46;98812.02;106298;1323;22764;-60
2021/12/22 04:55:36;;;;;;;207.10;118.40;;;;;;;-4.20;80.23;98819.36;106289;1322;22393;-59
2021/12/22 04:58:05;;;;;;;204.70;126.60;;;;;;;-4.19;80.19;98817.56;106286;1323;23241;-59
2021/12/22 05:00:36;;;;;;;216.90;129.50;;;;;;;-4.15;80.29;98818.11;106301;1322;22478;-59
2021/12/22 05:03:04;;;;;;;208.50;127.20;;;;;;;-4.09;80.43;98813.63;106280;1323;22560;-60
2021/12/22 05:05:33;;;;;;;215.70;132.90;;;;;;;-4.06;80.41;98815.35;106302;1323;23123;-60
2021/12/22 05:08:01;;;;;;;224.30;134.20;;;;;;;-4.03;80.34;98817.30;106304;1323;22468;-60
2021/12/22 05:10:30;;;;;;;220.90;134.60;;;;;;;-4.03;80.45;98816.04;106286;1323;23237;-59
2021/12/22 05:12:58;;;;;;;215.50;126.40;;;;;;;-4.03;80.33;98818.59;106309;1323;22481;-60
2021/12/22 05:15:35;;;;;;;208.90;124.90;;;;;;;-4.00;80.44;98821.02;106319;1323;23280;-59
2021/12/22 05:20:42;;;;;;;211.50;129.90;;;;;;;-3.83;80.53;98818.24;106270;1323;22496;-59
2021/12/22 05:23:16;;;;;;;220.20;132.20;;;;;;;-3.76;80.48;98819.47;106294;1323;22473;-60
2021/12/22 05:25:45;;;;;;;223.60;137.20;;;;;;;-3.74;80.24;98826.09;106236;1323;23050;-59
2021/12/22 05:28:13;;;;;;;284.60;180.40;;;;;;;-3.76;80.54;98823.52;106305;1323;23220;-58
2021/12/22 05:30:41;;;;;;;239.60;148.90;;;;;;;-3.76;80.57;98821.93;106296;1323;22312;-60
2021/12/22 05:33:09;;;;;;;220.00;128.70;;;;;;;-3.76;80.60;98824.02;106291;1323;22510;-60
2021/12/22 05:35:42;;;;;;;216.70;128.50;;;;;;;-3.74;80.63;98824.19;106273;1323;22472;-60
2021/12/22 05:38:10;;;;;;;215.40;130.10;;;;;;;-3.69;80.72;98824.45;106284;1323;22649;-60
2021/12/22 05:40:38;;;;;;;218.00;134.40;;;;;;;-3.63;80.72;98819.82;106269;1323;22596;-60
2021/12/22 05:43:09;;;;;;;221.60;135.60;;;;;;;-3.64;80.59;98821.99;106273;1323;22417;-59
2021/12/22 05:45:37;;;;;;;231.60;142.00;;;;;;;-3.65;80.78;98823.48;106294;1323;22573;-59
2021/12/22 05:48:05;;;;;;;234.20;141.40;;;;;;;-3.64;80.89;98822.64;106266;1322;22462;-59
2021/12/22 05:50:33;;;;;;;246.40;152.00;;;;;;;-3.64;80.78;98830.74;106267;1322;23585;-59
2021/12/22 05:53:01;;;;;;;225.00;134.00;;;;;;;-3.67;80.83;98835.27;106274;1323;22556;-60
2021/12/22 05:55:30;;;;;;;219.90;132.00;;;;;;;-3.68;80.90;98837.84;106301;1323;23239;-60
2021/12/22 05:57:58;;;;;;;217.60;126.70;;;;;;;-3.67;80.72;98844.08;106267;1323;22664;-60
2021/12/22 06:00:26;;;;;;;224.00;133.40;;;;;;;-3.64;80.67;98844.26;106305;1323;22562;-60
2021/12/22 06:02:55;;;;;;;231.70;138.40;;;;;;;-3.59;80.90;98845.20;106232;1324;22492;-60
2021/12/22 06:05:23;;;;;;;221.00;133.00;;;;;;;-3.59;80.91;98853.46;106306;1323;23572;-60
2021/12/22 06:07:52;;;;;;;216.20;133.60;;;;;;;-3.66;80.88;98855.00;106286;1323;22769;-60
2021/12/22 06:10:20;;;;;;;226.30;141.90;;;;;;;-3.71;80.92;98852.42;106263;1323;22541;-60
2021/12/22 06:12:48;;;;;;;207.20;124.00;;;;;;;-3.72;81.03;98858.20;106301;1322;23139;-60
2021/12/22 06:15:16;;;;;;;196.00;119.80;;;;;;;-3.73;80.97;98864.60;106278;1323;22277;-60
2021/12/22 06:17:46;;;;;;;203.80;123.10;;;;;;;-3.74;81.06;98861.77;106275;1323;22473;-60
2021/12/22 06:20:14;;;;;;;216.10;132.20;;;;;;;-3.73;80.91;98864.80;106297;1323;22503;-58
2021/12/22 06:22:42;;;;;;;216.40;132.40;;;;;;;-3.70;80.99;98869.49;106312;1323;22299;-60
2021/12/22 06:25:10;;;;;;;213.60;135.70;;;;;;;-3.67;81.21;98874.80;106298;1323;22284;-60
2021/12/22 06:27:38;;;;;;;233.40;143.10;;;;;;;-3.65;81.23;98877.70;106327;1323;22716;-60
2021/12/22 06:30:07;;;;;;;219.10;130.20;;;;;;;-3.62;81.28;98879.48;106300;1323;23176;-60
2021/12/22 06:32:35;;;;;;;207.40;123.60;;;;;;;-3.57;81.37;98884.68;106301;1323;22486;-60
2021/12/22 06:35:04;;;;;;;203.20;122.70;;;;;;;-3.51;81.25;98887.65;106305;1323;22589;-60
2021/12/22 06:37:32;;;;;;;214.90;128.90;;;;;;;-3.47;81.08;98890.10;106335;1323;22572;-60
2021/12/22 06:40:00;;;;;;;215.50;127.30;;;;;;;-3.44;81.24;98891.72;106305;1322;22578;-60
2021/12/22 06:42:28;;;;;;;207.00;131.50;;;;;;;-3.42;81.20;98900.29;106313;1323;22277;-60
2021/12/22 06:44:56;;;;;;;204.00;133.80;;;;;;;-3.49;81.02;98900.21;106307;1323;22380;-59
2021/12/22 06:47:25;;;;;;;205.50;124.20;;;;;;;-3.55;81.31;98904.78;106293;1323;23096;-60
2021/12/22 06:49:53;;;;;;;200.50;120.80;;;;;;;-3.53;81.28;98903.05;106332;1322;22421;-60
2021/12/22 06:52:24;;;;;;;207.50;133.50;;;;;;;-3.51;81.34;98904.67;106313;1322;22394;-60
2021/12/22 06:54:52;;;;;;;233.70;147.20;;;;;;;-3.48;81.26;98910.83;106285;1323;23133;-60
2021/12/22 06:57:21;;;;;;;241.00;146.40;;;;;;;-3.47;81.36;98914.39;106324;1323;23074;-60
2021/12/22 06:59:50;;;;;;;252.70;155.10;;;;;;;-3.49;81.33;98915.92;106289;1322;22598;-60
2021/12/22 07:02:19;;;;;;;270.40;165.40;;;;;;;-3.50;81.64;98914.90;106311;1323;22341;-60
2021/12/22 07:04:47;;;;;;;260.50;149.70;;;;;;;-3.52;81.50;98917.06;106289;1322;22487;-60
2021/12/22 07:07:15;;;;;;;233.20;134.00;;;;;;;-3.51;81.53;98917.84;106293;1323;22466;-60
2021/12/22 07:09:43;;;;;;;218.60;135.10;;;;;;;-3.47;81.39;98926.16;106329;1323;22487;-60
2021/12/22 07:12:11;;;;;;;236.90;145.40;;;;;;;-3.45;81.43;98925.52;106296;1323;23128;-60
2021/12/22 07:14:39;;;;;;;234.40;139.80;;;;;;;-3.41;81.53;98931.27;106316;1323;22595;-60
2021/12/22 07:17:09;;;;;;;231.00;141.90;;;;;;;-3.40;81.60;98933.44;106341;1323;22493;-60
2021/12/22 07:19:37;;;;;;;229.70;143.30;;;;;;;-3.39;81.60;98932.46;106314;1323;23187;-59
2021/12/22 07:22:06;;;;;;;249.50;156.70;;;;;;;-3.41;81.65;98933.66;106320;1323;22473;-60
2021/12/22 07:24:35;;;;;;;234.00;142.60;;;;;;;-3.39;81.71;98940.45;106208;1323;139225;-59
2021/12/22 07:27:04;;;;;;;289.60;167.00;;;;;;;-3.39;81.70;98938.70;106280;1323;22585;-59
2021/12/22 07:29:32;;;;;;;299.00;180.20;;;;;;;-3.35;81.69;98938.23;106305;1323;23321;-60
2021/12/22 07:32:00;;;;;;;243.20;148.10;;;;;;;-3.26;81.67;98943.36;106310;1323;22581;-59
2021/12/22 07:34:34;;;;;;;316.00;203.30;;;;;;;-3.22;81.58;98946.67;106259;1321;23234;-60
2021/12/22 07:37:20;;;;;;;;;;;;;;;-3.20;81.69;98949.98;106333;1323;22498;-59
2021/12/22 07:39:49;;;;;;;273.80;176.70;;;;;;;-3.22;81.70;98945.95;106318;1322;22381;-60
2021/12/22 07:42:17;;;;;;;225.60;150.80;;;;;;;-3.18;81.86;98953.32;106303;1322;22329;-60
2021/12/22 07:44:45;;;;;;;202.20;128.50;;;;;;;-3.15;81.73;98957.46;106247;1320;22270;-60
2021/12/22 07:47:13;;;;;;;194.80;121.00;;;;;;;-3.12;81.47;98959.80;106312;1323;22316;-60
2021/12/22 07:49:42;;;;;;;204.80;128.50;;;;;;;-3.11;81.31;98963.31;106288;1323;22750;-60
2021/12/22 07:52:10;;;;;;;225.30;139.70;;;;;;;-3.08;81.22;98965.10;106312;1323;22454;-60
2021/12/22 07:54:39;;;;;;;229.60;144.40;;;;;;;-3.09;81.38;98964.64;106294;1323;22924;-60
2021/12/22 07:57:07;;;;;;;213.40;133.00;;;;;;;-3.10;81.51;98966.17;106322;1323;22319;-60
2021/12/22 07:59:35;;;;;;;170.20;112.70;;;;;;;-3.15;81.28;98966.79;106323;1323;22401;-60
2021/12/22 08:02:03;;;;;;;162.60;103.00;;;;;;;-3.19;81.46;98970.20;106337;1323;22451;-60
2021/12/22 08:04:37;;;;;;;129.50;86.30;;;;;;;-3.18;81.70;98967.70;106300;1323;22679;-60
2021/12/22 08:07:05;;;;;;;92.90;71.40;;;;;;;-3.14;81.49;98974.02;106331;1323;22391;-60
2021/12/22 08:09:35;;;;;;;82.00;67.20;;;;;;;-3.18;81.34;98971.55;106308;1323;22583;-60
2021/12/22 08:12:04;;;;;;;76.40;67.80;;;;;;;-3.27;81.39;98973.45;106325;1323;22561;-60
2021/12/22 08:14:38;;;;;;;84.00;73.20;;;;;;;-3.37;81.68;98970.31;106342;1323;22509;-60
2021/12/22 08:17:08;;;;;;;58.10;51.80;;;;;;;-3.41;81.75;98963.86;106333;1323;22472;-60
2021/12/22 08:19:36;;;;;;;49.50;44.60;;;;;;;-3.42;81.61;98966.96;106298;1323;23117;-60
2021/12/22 08:22:04;;;;;;;53.80;48.40;;;;;;;-3.42;81.59;98969.64;106294;1322;22489;-59
2021/12/22 08:24:33;;;;;;;55.20;49.70;;;;;;;-3.38;81.57;98970.96;106304;1318;22447;-60
2021/12/22 08:27:01;;;;;;;60.40;54.20;;;;;;;-3.35;81.61;98970.30;106299;1323;22567;-60
2021/12/22 08:29:29;;;;;;;54.90;49.50;;;;;;;-3.29;81.84;98971.80;106275;1323;22504;-59
2021/12/22 08:31:57;;;;;;;54.20;48.80;;;;;;;-3.26;81.64;98974.60;106318;1322;23322;-60
2021/12/22 08:34:27;;;;;;;51.30;46.10;;;;;;;-3.31;81.50;98978.36;106316;1320;22290;-60
2021/12/22 08:39:47;;;;;;;60.80;54.60;;;;;;;-3.32;81.55;98985.52;106289;1323;23182;-59
2021/12/22 08:42:15;;;;;;;74.20;64.00;;;;;;;-3.29;81.52;98987.46;106336;1323;23141;-59
2021/12/22 08:44:44;;;;;;;69.80;62.20;;;;;;;-3.34;81.39;98988.23;106322;1323;23030;-59
2021/12/22 08:47:12;;;;;;;73.80;62.50;;;;;;;-3.36;81.58;98987.63;106304;1323;22779;-59
2021/12/22 08:49:40;;;;;;;62.30;53.90;;;;;;;-3.33;81.70;98991.59;106331;1323;22311;-59
2021/12/22 08:52:08;;;;;;;50.80;45.60;;;;;;;-3.28;81.65;98990.07;106248;1323;22493;-59
2021/12/22 08:54:36;;;;;;;58.60;52.50;;;;;;;-3.25;81.21;98994.11;106317;1323;22359;-59
2021/12/22 08:57:05;;;;;;;62.30;53.80;;;;;;;-3.22;81.40;98998.83;106303;1323;22567;-60
2021/12/22 08:59:33;;;;;;;55.80;49.60;;;;;;;-3.20;81.50;98999.02;106289;1323;22520;-58
2021/12/22 09:02:02;;;;;;;52.70;47.40;;;;;;;-3.18;81.31;98999.12;106329;1322;22601;-59
2021/12/22 09:04:31;;;;;;;43.70;39.00;;;;;;;-3.14;81.44;98995.48;106342;1323;23234;-59
2021/12/22 09:06:59;;;;;;;39.80;35.60;;;;;;;-3.12;81.28;98991.89;106292;1323;22503;-60
2021/12/22 09:09:27;;;;;;;35.70;32.00;;;;;;;-3.10;80.90;99001.05;106344;1323;23146;-60
2021/12/22 09:11:56;;;;;;;35.60;31.80;;;;;;;-3.22;80.39;98999.91;106333;1323;22477;-59
2021/12/22 09:14:25;;;;;;;35.40;31.90;;;;;;;-3.37;80.45;99003.81;106308;1323;23045;-60
2021/12/22 09:16:54;;;;;;;34.90;31.30;;;;;;;-3.45;80.51;99000.58;106320;1322;23155;-59
2021/12/22 09:19:23;;;;;;;33.90;30.30;;;;;;;-3.47;80.42;98997.50;106320;1323;22523;-59
2021/12/22 09:21:51;;;;;;;38.60;34.90;;;;;;;-3.49;80.41;99001.91;106311;1322;22555;-60
2021/12/22 09:24:20;;;;;;;38.60;34.70;;;;;;;-3.50;80.45;99000.15;106350;1323;22401;-59
2021/12/22 09:26:48;;;;;;;38.70;34.80;;;;;;;-3.53;80.48;98999.13;106267;1323;22510;-59
2021/12/22 09:29:29;;;;;;;38.60;34.70;;;;;;;-3.55;80.10;98997.73;106330;1323;22285;-60
2021/12/22 09:32:21;;;;;;;34.70;31.20;;;;;;;-3.47;80.37;98996.45;106330;1323;22253;-59
2021/12/22 09:34:53;;;;;;;39.60;35.50;;;;;;;-3.38;80.40;98998.37;106348;1323;22593;-60
2021/12/22 09:37:27;;;;;;;41.60;37.40;;;;;;;-3.32;80.51;99001.13;106326;1323;22432;-60
2021/12/22 09:39:55;;;;;;;40.00;36.10;;;;;;;-3.22;80.71;99002.56;106343;1323;23691;-59
2021/12/22 09:42:24;;;;;;;39.00;35.30;;;;;;;-3.13;80.49;99002.59;106326;1323;22686;-60
2021/12/22 09:45:00;;;;;;;36.40;32.60;;;;;;;-3.08;80.49;99002.73;106257;1323;22410;-59
2021/12/22 09:47:36;;;;;;;38.10;34.20;;;;;;;-3.09;80.00;99005.80;106365;1323;22561;-60
2021/12/22 09:50:12;;;;;;;37.80;33.90;;;;;;;-3.07;79.64;99003.83;106109;1320;295587;-60
2021/12/22 09:52:40;;;;;;;39.50;35.60;;;;;;;-3.01;80.02;99005.48;106348;1323;23386;-60
2021/12/22 09:55:09;;;;;;;37.60;34.00;;;;;;;-2.99;79.90;99012.46;106317;1323;22461;-61
2021/12/22 09:57:37;;;;;;;37.80;34.00;;;;;;;-2.93;80.21;99012.16;106315;1315;22483;-60
2021/12/22 10:00:11;;;;;;;38.00;33.90;;;;;;;-2.94;79.96;99006.64;106264;1323;22615;-60
2021/12/22 10:02:44;;;;;;;34.50;31.10;;;;;;;-2.99;79.79;99014.48;106345;1323;22549;-60
2021/12/22 10:05:12;;;;;;;32.00;28.70;;;;;;;-3.05;79.85;99013.92;106321;1323;22715;-61
2021/12/22 10:07:43;;;;;;;37.60;34.10;;;;;;;-3.05;79.54;99012.63;106329;1317;23225;-60
2021/12/22 10:10:13;;;;;;;37.30;33.50;;;;;;;-3.03;79.50;99008.99;106323;1322;22532;-59
2021/12/22 10:12:43;;;;;;;37.60;34.00;;;;;;;-3.01;79.77;99012.52;106314;1322;22469;-59
2021/12/22 10:15:12;;;;;;;36.80;33.30;;;;;;;-2.99;79.79;99006.01;106322;1323;22384;-59
2021/12/22 10:17:43;;;;;;;37.10;33.50;;;;;;;-2.97;79.36;99009.57;106265;1323;22562;-59
2021/12/22 10:20:17;;;;;;;38.60;34.90;;;;;;;-2.97;78.78;99007.14;106315;1323;22485;-59
2021/12/22 10:22:49;;;;;;;39.00;35.00;;;;;;;-2.93;79.42;99001.91;106210;1323;139125;-59
2021/12/22 10:25:21;;;;;;;34.90;31.40;;;;;;;-2.90;79.66;98998.12;106333;1323;23059;-59
2021/12/22 10:28:04;;;;;;;34.40;31.00;;;;;;;-2.84;79.62;98997.34;106327;1323;22416;-60
2021/12/22 10:30:39;;;;;;;30.50;26.40;;;;;;;-2.77;79.20;98990.45;106217;1323;138458;-58
2021/12/22 10:33:21;;;;;;;37.70;33.90;;;;;;;-2.64;79.70;98991.20;106281;1323;23196;-58
2021/12/22 10:35:55;;;;;;;35.60;32.00;;;;;;;-2.46;79.83;98987.31;106318;1323;22373;-60
2021/12/22 10:38:29;;;;;;;34.80;31.20;;;;;;;-2.39;79.40;98988.32;106278;1323;22502;-59
2021/12/22 10:41:01;;;;;;;29.40;26.40;;;;;;;-2.34;79.19;98990.16;106303;1323;22653;-60
2021/12/22 10:43:32;;;;;;;29.00;26.10;;;;;;;-2.41;78.31;98982.77;106334;1323;22468;-59
2021/12/22 10:46:03;;;;;;;29.60;26.60;;;;;;;-2.52;78.34;98985.67;106267;1323;23218;-60
2021/12/22 10:51:32;;;;;;;25.20;22.50;;;;;;;-2.59;78.62;98982.48;106316;1323;22431;-59
2021/12/22 10:54:06;;;;;;;26.20;23.40;;;;;;;-2.61;78.24;98985.88;106289;1323;22512;-60
2021/12/22 10:56:38;;;;;;;21.30;19.20;;;;;;;-2.53;78.65;98987.94;106330;1321;22516;-60
2021/12/22 10:59:17;;;;;;;17.40;15.70;;;;;;;-2.48;77.31;98990.34;106111;1323;138314;-59
2021/12/22 11:01:54;;;;;;;17.30;15.60;;;;;;;-2.52;77.37;98989.58;106293;1323;22485;-60
2021/12/22 11:04:27;;;;;;;19.60;17.60;;;;;;;-2.53;77.48;98984.23;106277;1323;22502;-60
2021/12/22 11:07:07;;;;;;;16.60;15.00;;;;;;;-2.45;77.83;98985.09;106266;1323;22612;-59
2021/12/22 11:09:36;;;;;;;18.80;16.90;;;;;;;-2.42;77.75;98980.58;106253;1321;22300;-60
2021/12/22 11:12:06;;;;;;;22.30;19.90;;;;;;;-2.40;77.67;98983.27;106302;1315;22480;-60
2021/12/22 11:14:41;;;;;;;23.80;21.40;;;;;;;-2.42;76.65;98987.29;106316;1318;22504;-60
2021/12/22 11:17:12;;;;;;;28.00;25.00;;;;;;;-2.58;76.67;98980.05;106294;1316;22273;-59
2021/12/22 11:19:46;;;;;;;27.80;24.90;;;;;;;-2.66;76.45;98980.54;106244;1318;22528;-60
2021/12/22 11:22:16;;;;;;;32.30;28.90;;;;;;;-2.73;76.45;98973.84;106289;1316;22279;-60
2021/12/22 11:24:52;;;;;;;31.30;28.00;;;;;;;-2.79;76.12;98973.83;106319;1322;22283;-60
2021/12/22 11:27:26;;;;;;;31.40;27.50;;;;;;;-2.82;76.03;98972.81;106319;1323;22409;-60
2021/12/22 11:29:56;;;;;;;26.90;24.00;;;;;;;-2.85;76.71;98972.54;106190;1321;138455;-60
2021/12/22 11:32:28;;;;;;;31.80;28.20;;;;;;;-2.83;76.75;98973.98;106302;1321;22477;-59
2021/12/22 11:34:58;;;;;;;39.60;35.50;;;;;;;-2.77;76.80;98967.63;106262;1315;23444;-60